• pl
  • eng

Awiacja
TAF FC 19:30 24.05.2019
  • WIND
  • SIGNIFICANT EURO
  • SIGNIFICANT
  • SIGMET
  • AIRMET
  • TAF FC
  • TAF FT
  • METAR GG30
  • METAR GG00


TAF EPLB 241730Z 2418/2503 31006KT 9999 BKN015=

TAF EPSY 241730Z 2418/2503 VRB04KT CAVOK=
Awiacja.imgw.pl jest pogodowym serwisem informacyjnym
Instytutu Meteorologii i Gospodarki Wodnej Państwowego Instytutu Badawczego.
Copyright IMGW PIB 2009-2011© Wszelkie prawa zastrzeżone.